sensor_id;sensor_type;location;lat;lon;timestamp;temperature;humidity
48328;DHT22;34136;51.022;7.082;2022-11-20T00:02:35;4.40;1.00
48328;DHT22;34136;51.022;7.082;2022-11-20T00:05:21;4.40;1.00
48328;DHT22;34136;51.022;7.082;2022-11-20T00:08:25;4.40;1.00
48328;DHT22;34136;51.022;7.082;2022-11-20T00:11:31;4.50;1.00
48328;DHT22;34136;51.022;7.082;2022-11-20T00:14:17;4.50;1.00
48328;DHT22;34136;51.022;7.082;2022-11-20T00:17:04;4.30;1.00
48328;DHT22;34136;51.022;7.082;2022-11-20T00:19:50;4.20;1.00
48328;DHT22;34136;51.022;7.082;2022-11-20T00:22:36;4.30;1.00
48328;DHT22;34136;51.022;7.082;2022-11-20T00:25:40;4.30;1.00
48328;DHT22;34136;51.022;7.082;2022-11-20T00:28:26;4.30;1.00
48328;DHT22;34136;51.022;7.082;2022-11-20T00:31:16;4.40;1.00
48328;DHT22;34136;51.022;7.082;2022-11-20T00:34:02;4.40;1.00
48328;DHT22;34136;51.022;7.082;2022-11-20T00:36:48;4.40;1.00
48328;DHT22;34136;51.022;7.082;2022-11-20T00:39:34;4.30;1.00
48328;DHT22;34136;51.022;7.082;2022-11-20T00:42:20;4.30;1.00
48328;DHT22;34136;51.022;7.082;2022-11-20T00:45:07;4.30;1.00
48328;DHT22;34136;51.022;7.082;2022-11-20T00:47:53;4.40;1.00
48328;DHT22;34136;51.022;7.082;2022-11-20T00:50:39;4.40;1.00
48328;DHT22;34136;51.022;7.082;2022-11-20T00:53:45;4.30;1.00
48328;DHT22;34136;51.022;7.082;2022-11-20T00:56:31;4.30;1.00
48328;DHT22;34136;51.022;7.082;2022-11-20T00:59:17;4.40;1.00
48328;DHT22;34136;51.022;7.082;2022-11-20T01:02:03;4.40;1.00
48328;DHT22;34136;51.022;7.082;2022-11-20T01:04:49;4.50;1.00
48328;DHT22;34136;51.022;7.082;2022-11-20T01:07:36;4.40;1.00
48328;DHT22;34136;51.022;7.082;2022-11-20T01:10:22;4.40;1.00
48328;DHT22;34136;51.022;7.082;2022-11-20T01:13:08;4.40;1.00
48328;DHT22;34136;51.022;7.082;2022-11-20T01:15:54;4.40;1.00
48328;DHT22;34136;51.022;7.082;2022-11-20T01:18:43;4.40;1.00
48328;DHT22;34136;51.022;7.082;2022-11-20T01:21:36;4.50;1.00
48328;DHT22;34136;51.022;7.082;2022-11-20T01:24:22;4.50;1.00
48328;DHT22;34136;51.022;7.082;2022-11-20T01:27:08;4.40;1.00
48328;DHT22;34136;51.022;7.082;2022-11-20T01:30:13;4.40;1.00
48328;DHT22;34136;51.022;7.082;2022-11-20T01:32:59;4.50;1.00
48328;DHT22;34136;51.022;7.082;2022-11-20T01:35:45;4.50;1.00
48328;DHT22;34136;51.022;7.082;2022-11-20T01:38:31;4.50;1.00
48328;DHT22;34136;51.022;7.082;2022-11-20T01:41:17;4.50;1.00
48328;DHT22;34136;51.022;7.082;2022-11-20T01:44:44;4.60;1.00
48328;DHT22;34136;51.022;7.082;2022-11-20T01:47:35;4.60;1.00
48328;DHT22;34136;51.022;7.082;2022-11-20T01:50:25;4.50;1.00
48328;DHT22;34136;51.022;7.082;2022-11-20T01:53:33;4.50;1.00
48328;DHT22;34136;51.022;7.082;2022-11-20T01:56:21;4.60;1.00
48328;DHT22;34136;51.022;7.082;2022-11-20T01:59:10;4.50;1.00
48328;DHT22;34136;51.022;7.082;2022-11-20T02:01:59;4.60;1.00
48328;DHT22;34136;51.022;7.082;2022-11-20T02:04:46;4.50;1.00
48328;DHT22;34136;51.022;7.082;2022-11-20T02:07:33;4.60;1.00
48328;DHT22;34136;51.022;7.082;2022-11-20T02:10:20;4.50;1.00
48328;DHT22;34136;51.022;7.082;2022-11-20T02:13:07;4.40;1.00
48328;DHT22;34136;51.022;7.082;2022-11-20T02:15:54;4.40;1.00
48328;DHT22;34136;51.022;7.082;2022-11-20T02:18:42;4.40;1.00
48328;DHT22;34136;51.022;7.082;2022-11-20T02:24:19;4.30;1.00
48328;DHT22;34136;51.022;7.082;2022-11-20T02:27:10;4.40;1.00
48328;DHT22;34136;51.022;7.082;2022-11-20T02:30:01;4.50;1.00
48328;DHT22;34136;51.022;7.082;2022-11-20T02:32:47;4.50;1.00
48328;DHT22;34136;51.022;7.082;2022-11-20T02:38:38;4.20;1.00
48328;DHT22;34136;51.022;7.082;2022-11-20T02:41:36;4.20;1.00
48328;DHT22;34136;51.022;7.082;2022-11-20T02:44:22;4.30;1.00
48328;DHT22;34136;51.022;7.082;2022-11-20T02:47:09;4.30;1.00
48328;DHT22;34136;51.022;7.082;2022-11-20T02:49:55;4.40;1.00
48328;DHT22;34136;51.022;7.082;2022-11-20T02:52:42;4.30;1.00
48328;DHT22;34136;51.022;7.082;2022-11-20T02:55:28;4.30;1.00
48328;DHT22;34136;51.022;7.082;2022-11-20T02:58:14;4.40;1.00
48328;DHT22;34136;51.022;7.082;2022-11-20T03:01:01;4.40;1.00
48328;DHT22;34136;51.022;7.082;2022-11-20T03:03:47;4.30;1.00
48328;DHT22;34136;51.022;7.082;2022-11-20T03:06:34;4.30;1.00
48328;DHT22;34136;51.022;7.082;2022-11-20T03:09:20;4.30;1.00
48328;DHT22;34136;51.022;7.082;2022-11-20T03:12:24;4.30;1.00
48328;DHT22;34136;51.022;7.082;2022-11-20T03:15:29;4.30;1.00
48328;DHT22;34136;51.022;7.082;2022-11-20T03:18:34;4.40;1.00
48328;DHT22;34136;51.022;7.082;2022-11-20T03:21:20;4.30;1.00
48328;DHT22;34136;51.022;7.082;2022-11-20T03:24:25;4.30;1.00
48328;DHT22;34136;51.022;7.082;2022-11-20T03:27:11;4.40;1.00
48328;DHT22;34136;51.022;7.082;2022-11-20T03:29:58;4.40;1.00
48328;DHT22;34136;51.022;7.082;2022-11-20T03:32:44;4.30;1.00
48328;DHT22;34136;51.022;7.082;2022-11-20T03:35:30;4.30;1.00
48328;DHT22;34136;51.022;7.082;2022-11-20T03:38:16;4.30;1.00
48328;DHT22;34136;51.022;7.082;2022-11-20T03:41:26;4.30;1.00
48328;DHT22;34136;51.022;7.082;2022-11-20T03:44:13;4.40;1.00
48328;DHT22;34136;51.022;7.082;2022-11-20T03:46:59;4.40;1.00
48328;DHT22;34136;51.022;7.082;2022-11-20T03:49:45;4.40;1.00
48328;DHT22;34136;51.022;7.082;2022-11-20T03:52:50;4.20;1.00
48328;DHT22;34136;51.022;7.082;2022-11-20T03:55:37;4.20;1.00
48328;DHT22;34136;51.022;7.082;2022-11-20T03:58:23;4.20;1.00
48328;DHT22;34136;51.022;7.082;2022-11-20T04:01:13;4.10;1.00
48328;DHT22;34136;51.022;7.082;2022-11-20T04:04:00;4.10;1.00
48328;DHT22;34136;51.022;7.082;2022-11-20T04:06:47;4.10;1.00
48328;DHT22;34136;51.022;7.082;2022-11-20T04:09:51;4.10;1.00
48328;DHT22;34136;51.022;7.082;2022-11-20T04:12:56;4.10;1.00
48328;DHT22;34136;51.022;7.082;2022-11-20T04:15:42;4.10;1.00
48328;DHT22;34136;51.022;7.082;2022-11-20T04:18:28;4.20;1.00
48328;DHT22;34136;51.022;7.082;2022-11-20T04:21:15;4.30;1.00
48328;DHT22;34136;51.022;7.082;2022-11-20T04:24:01;4.30;1.00
48328;DHT22;34136;51.022;7.082;2022-11-20T04:26:47;4.30;1.00
48328;DHT22;34136;51.022;7.082;2022-11-20T04:29:34;4.40;1.00
48328;DHT22;34136;51.022;7.082;2022-11-20T04:32:20;4.40;1.00
48328;DHT22;34136;51.022;7.082;2022-11-20T04:35:06;4.40;1.00
48328;DHT22;34136;51.022;7.082;2022-11-20T04:37:53;4.30;1.00
48328;DHT22;34136;51.022;7.082;2022-11-20T04:40:39;4.30;1.00
48328;DHT22;34136;51.022;7.082;2022-11-20T04:43:25;4.30;1.00
48328;DHT22;34136;51.022;7.082;2022-11-20T04:46:12;4.20;1.00
48328;DHT22;34136;51.022;7.082;2022-11-20T04:48:59;4.20;1.00
48328;DHT22;34136;51.022;7.082;2022-11-20T04:51:45;4.20;1.00
48328;DHT22;34136;51.022;7.082;2022-11-20T04:54:50;4.10;1.00
48328;DHT22;34136;51.022;7.082;2022-11-20T04:57:55;4.20;1.00
48328;DHT22;34136;51.022;7.082;2022-11-20T05:01:06;4.30;1.00
48328;DHT22;34136;51.022;7.082;2022-11-20T05:04:11;4.30;1.00
48328;DHT22;34136;51.022;7.082;2022-11-20T05:07:15;4.20;1.00
48328;DHT22;34136;51.022;7.082;2022-11-20T05:10:02;4.20;1.00
48328;DHT22;34136;51.022;7.082;2022-11-20T05:12:48;4.20;1.00
48328;DHT22;34136;51.022;7.082;2022-11-20T05:15:34;4.10;1.00
48328;DHT22;34136;51.022;7.082;2022-11-20T05:18:40;4.20;1.00
48328;DHT22;34136;51.022;7.082;2022-11-20T05:21:45;4.10;1.00
48328;DHT22;34136;51.022;7.082;2022-11-20T05:24:50;4.10;1.00
48328;DHT22;34136;51.022;7.082;2022-11-20T05:27:54;4.10;1.00
48328;DHT22;34136;51.022;7.082;2022-11-20T05:31:09;4.10;1.00
48328;DHT22;34136;51.022;7.082;2022-11-20T05:33:56;4.30;1.00
48328;DHT22;34136;51.022;7.082;2022-11-20T05:36:43;4.30;1.00
48328;DHT22;34136;51.022;7.082;2022-11-20T05:39:47;4.40;1.00
48328;DHT22;34136;51.022;7.082;2022-11-20T05:42:52;4.40;1.00
48328;DHT22;34136;51.022;7.082;2022-11-20T05:45:38;4.40;1.00
48328;DHT22;34136;51.022;7.082;2022-11-20T05:48:25;4.40;1.00
48328;DHT22;34136;51.022;7.082;2022-11-20T05:51:13;4.50;1.00
48328;DHT22;34136;51.022;7.082;2022-11-20T05:54:00;4.40;1.00
48328;DHT22;34136;51.022;7.082;2022-11-20T05:56:46;4.40;1.00
48328;DHT22;34136;51.022;7.082;2022-11-20T05:59:33;4.50;1.00
48328;DHT22;34136;51.022;7.082;2022-11-20T06:02:19;4.40;1.00
48328;DHT22;34136;51.022;7.082;2022-11-20T06:05:06;4.50;1.00
48328;DHT22;34136;51.022;7.082;2022-11-20T06:07:52;4.40;1.00
48328;DHT22;34136;51.022;7.082;2022-11-20T06:10:38;4.40;1.00
48328;DHT22;34136;51.022;7.082;2022-11-20T06:13:24;4.30;1.00
48328;DHT22;34136;51.022;7.082;2022-11-20T06:16:29;4.30;1.00
48328;DHT22;34136;51.022;7.082;2022-11-20T06:19:15;4.40;1.00
48328;DHT22;34136;51.022;7.082;2022-11-20T06:22:20;4.30;1.00
48328;DHT22;34136;51.022;7.082;2022-11-20T06:25:06;4.30;1.00
48328;DHT22;34136;51.022;7.082;2022-11-20T06:27:52;4.40;1.00
48328;DHT22;34136;51.022;7.082;2022-11-20T06:30:44;4.30;1.00
48328;DHT22;34136;51.022;7.082;2022-11-20T06:33:50;4.40;1.00
48328;DHT22;34136;51.022;7.082;2022-11-20T06:36:37;4.30;1.00
48328;DHT22;34136;51.022;7.082;2022-11-20T06:39:23;4.40;1.00
48328;DHT22;34136;51.022;7.082;2022-11-20T06:42:09;4.30;1.00
48328;DHT22;34136;51.022;7.082;2022-11-20T06:44:56;4.30;1.00
48328;DHT22;34136;51.022;7.082;2022-11-20T06:47:42;4.30;1.00
48328;DHT22;34136;51.022;7.082;2022-11-20T06:50:28;4.30;1.00
48328;DHT22;34136;51.022;7.082;2022-11-20T06:53:14;4.30;1.00
48328;DHT22;34136;51.022;7.082;2022-11-20T06:56:01;4.30;1.00
48328;DHT22;34136;51.022;7.082;2022-11-20T06:58:47;4.30;1.00
48328;DHT22;34136;51.022;7.082;2022-11-20T07:01:34;4.10;1.40
48328;DHT22;34136;51.022;7.082;2022-11-20T07:04:21;4.10;1.20
48328;DHT22;34136;51.022;7.082;2022-11-20T07:07:25;4.10;1.10
48328;DHT22;34136;51.022;7.082;2022-11-20T07:10:12;4.00;1.00
48328;DHT22;34136;51.022;7.082;2022-11-20T07:12:58;3.90;1.10
48328;DHT22;34136;51.022;7.082;2022-11-20T07:15:45;3.90;1.30
48328;DHT22;34136;51.022;7.082;2022-11-20T07:19:09;3.80;1.80
48328;DHT22;34136;51.022;7.082;2022-11-20T07:21:55;3.80;1.60
48328;DHT22;34136;51.022;7.082;2022-11-20T07:24:41;3.60;2.60
48328;DHT22;34136;51.022;7.082;2022-11-20T07:27:28;3.60;3.30
48328;DHT22;34136;51.022;7.082;2022-11-20T07:30:33;3.60;3.30
48328;DHT22;34136;51.022;7.082;2022-11-20T07:33:38;3.70;3.00
48328;DHT22;34136;51.022;7.082;2022-11-20T07:36:24;3.60;3.30
48328;DHT22;34136;51.022;7.082;2022-11-20T07:39:11;3.60;3.30
48328;DHT22;34136;51.022;7.082;2022-11-20T07:41:57;3.60;3.10
48328;DHT22;34136;51.022;7.082;2022-11-20T07:44:43;3.50;4.50
48328;DHT22;34136;51.022;7.082;2022-11-20T07:47:35;3.60;4.70
48328;DHT22;34136;51.022;7.082;2022-11-20T07:50:22;3.50;4.80
48328;DHT22;34136;51.022;7.082;2022-11-20T07:53:08;3.50;5.30
48328;DHT22;34136;51.022;7.082;2022-11-20T07:55:55;3.50;6.20
48328;DHT22;34136;51.022;7.082;2022-11-20T07:58:44;3.50;6.00
48328;DHT22;34136;51.022;7.082;2022-11-20T08:01:31;3.50;5.50
48328;DHT22;34136;51.022;7.082;2022-11-20T08:04:36;3.60;5.20
48328;DHT22;34136;51.022;7.082;2022-11-20T08:07:22;3.50;5.40
48328;DHT22;34136;51.022;7.082;2022-11-20T08:10:11;3.50;5.90
48328;DHT22;34136;51.022;7.082;2022-11-20T08:13:15;3.50;5.80
48328;DHT22;34136;51.022;7.082;2022-11-20T08:16:02;3.50;6.10
48328;DHT22;34136;51.022;7.082;2022-11-20T08:18:48;3.50;6.60
48328;DHT22;34136;51.022;7.082;2022-11-20T08:21:34;3.50;6.70
48328;DHT22;34136;51.022;7.082;2022-11-20T08:24:20;3.50;6.60
48328;DHT22;34136;51.022;7.082;2022-11-20T08:27:06;3.50;6.80
48328;DHT22;34136;51.022;7.082;2022-11-20T08:29:52;3.50;6.90
48328;DHT22;34136;51.022;7.082;2022-11-20T08:32:38;3.40;7.10
48328;DHT22;34136;51.022;7.082;2022-11-20T08:35:24;3.50;7.20
48328;DHT22;34136;51.022;7.082;2022-11-20T08:38:10;3.60;6.80
48328;DHT22;34136;51.022;7.082;2022-11-20T08:41:02;3.70;6.60
48328;DHT22;34136;51.022;7.082;2022-11-20T08:43:48;3.70;6.60
48328;DHT22;34136;51.022;7.082;2022-11-20T08:46:36;3.80;6.40
48328;DHT22;34136;51.022;7.082;2022-11-20T08:49:23;3.80;6.40
48328;DHT22;34136;51.022;7.082;2022-11-20T08:52:09;3.70;6.30
48328;DHT22;34136;51.022;7.082;2022-11-20T08:54:55;3.80;6.60
48328;DHT22;34136;51.022;7.082;2022-11-20T08:57:42;3.90;7.20
48328;DHT22;34136;51.022;7.082;2022-11-20T09:00:28;3.90;8.00
48328;DHT22;34136;51.022;7.082;2022-11-20T09:03:14;4.00;6.90
48328;DHT22;34136;51.022;7.082;2022-11-20T09:06:05;4.10;6.60
48328;DHT22;34136;51.022;7.082;2022-11-20T09:08:53;4.20;6.90
48328;DHT22;34136;51.022;7.082;2022-11-20T09:11:58;4.30;7.40
48328;DHT22;34136;51.022;7.082;2022-11-20T09:14:44;4.30;6.70
48328;DHT22;34136;51.022;7.082;2022-11-20T09:17:30;4.30;6.20
48328;DHT22;34136;51.022;7.082;2022-11-20T09:20:16;4.40;6.50
48328;DHT22;34136;51.022;7.082;2022-11-20T09:23:02;4.40;5.90
48328;DHT22;34136;51.022;7.082;2022-11-20T09:25:49;4.40;5.30
48328;DHT22;34136;51.022;7.082;2022-11-20T09:28:35;4.50;4.70
48328;DHT22;34136;51.022;7.082;2022-11-20T09:31:25;4.50;4.00
48328;DHT22;34136;51.022;7.082;2022-11-20T09:34:11;4.60;3.90
48328;DHT22;34136;51.022;7.082;2022-11-20T09:36:57;4.60;4.40
48328;DHT22;34136;51.022;7.082;2022-11-20T09:39:43;4.70;4.20
48328;DHT22;34136;51.022;7.082;2022-11-20T09:42:37;4.80;3.80
48328;DHT22;34136;51.022;7.082;2022-11-20T09:54:39;4.90;3.60
48328;DHT22;34136;51.022;7.082;2022-11-20T09:57:37;5.00;2.60
48328;DHT22;34136;51.022;7.082;2022-11-20T10:00:27;5.10;1.20
48328;DHT22;34136;51.022;7.082;2022-11-20T10:03:23;5.10;1.00
48328;DHT22;34136;51.022;7.082;2022-11-20T10:06:39;5.20;1.00
48328;DHT22;34136;51.022;7.082;2022-11-20T10:09:36;5.20;1.00
48328;DHT22;34136;51.022;7.082;2022-11-20T10:12:31;5.30;1.00
48328;DHT22;34136;51.022;7.082;2022-11-20T10:15:30;5.30;1.00
48328;DHT22;34136;51.022;7.082;2022-11-20T10:25:20;5.60;1.00
48328;DHT22;34136;51.022;7.082;2022-11-20T10:31:14;5.60;1.00
48328;DHT22;34136;51.022;7.082;2022-11-20T10:37:24;5.60;1.00
48328;DHT22;34136;51.022;7.082;2022-11-20T10:40:37;5.50;1.00
48328;DHT22;34136;51.022;7.082;2022-11-20T10:43:32;5.60;1.00
48328;DHT22;34136;51.022;7.082;2022-11-20T10:46:44;5.60;1.00
48328;DHT22;34136;51.022;7.082;2022-11-20T10:49:32;5.70;1.00
48328;DHT22;34136;51.022;7.082;2022-11-20T10:55:58;5.80;1.00
48328;DHT22;34136;51.022;7.082;2022-11-20T11:02:18;5.80;1.00
48328;DHT22;34136;51.022;7.082;2022-11-20T11:05:38;5.80;1.00
48328;DHT22;34136;51.022;7.082;2022-11-20T11:08:28;5.90;1.00
48328;DHT22;34136;51.022;7.082;2022-11-20T11:11:29;5.80;1.00
48328;DHT22;34136;51.022;7.082;2022-11-20T11:14:15;5.90;1.00
48328;DHT22;34136;51.022;7.082;2022-11-20T11:17:02;6.00;1.00
48328;DHT22;34136;51.022;7.082;2022-11-20T11:20:21;6.00;1.00
48328;DHT22;34136;51.022;7.082;2022-11-20T11:23:29;6.00;1.00
48328;DHT22;34136;51.022;7.082;2022-11-20T11:26:22;6.10;1.00
48328;DHT22;34136;51.022;7.082;2022-11-20T11:29:17;6.00;1.00
48328;DHT22;34136;51.022;7.082;2022-11-20T11:32:11;6.00;1.00
48328;DHT22;34136;51.022;7.082;2022-11-20T11:35:03;5.90;1.00
48328;DHT22;34136;51.022;7.082;2022-11-20T11:37:50;5.80;1.00
48328;DHT22;34136;51.022;7.082;2022-11-20T11:40:59;5.90;1.00
48328;DHT22;34136;51.022;7.082;2022-11-20T11:43:57;5.90;1.00
48328;DHT22;34136;51.022;7.082;2022-11-20T11:46:53;5.80;1.00
48328;DHT22;34136;51.022;7.082;2022-11-20T11:49:40;5.80;1.00
48328;DHT22;34136;51.022;7.082;2022-11-20T11:52:28;5.80;1.00
48328;DHT22;34136;51.022;7.082;2022-11-20T11:58:50;6.10;1.00
48328;DHT22;34136;51.022;7.082;2022-11-20T12:01:47;6.30;1.00
48328;DHT22;34136;51.022;7.082;2022-11-20T12:05:00;6.30;1.00
48328;DHT22;34136;51.022;7.082;2022-11-20T12:11:00;6.60;1.00
48328;DHT22;34136;51.022;7.082;2022-11-20T12:14:19;6.50;1.00
48328;DHT22;34136;51.022;7.082;2022-11-20T12:17:12;6.30;1.00
48328;DHT22;34136;51.022;7.082;2022-11-20T12:19:58;6.30;1.00
48328;DHT22;34136;51.022;7.082;2022-11-20T12:25:59;6.50;1.00
48328;DHT22;34136;51.022;7.082;2022-11-20T12:28:56;6.40;1.00
48328;DHT22;34136;51.022;7.082;2022-11-20T12:43:52;6.30;1.00
48328;DHT22;34136;51.022;7.082;2022-11-20T12:46:49;6.30;1.00
48328;DHT22;34136;51.022;7.082;2022-11-20T12:52:57;6.40;1.00
48328;DHT22;34136;51.022;7.082;2022-11-20T13:01:49;6.40;1.00
48328;DHT22;34136;51.022;7.082;2022-11-20T13:05:00;6.40;1.00
48328;DHT22;34136;51.022;7.082;2022-11-20T13:07:53;6.40;1.00
48328;DHT22;34136;51.022;7.082;2022-11-20T13:10:43;6.50;1.00
48328;DHT22;34136;51.022;7.082;2022-11-20T13:14:04;6.50;1.00
48328;DHT22;34136;51.022;7.082;2022-11-20T13:17:19;6.60;1.00
48328;DHT22;34136;51.022;7.082;2022-11-20T13:20:14;6.70;1.00
48328;DHT22;34136;51.022;7.082;2022-11-20T13:23:01;6.70;1.00
48328;DHT22;34136;51.022;7.082;2022-11-20T13:25:48;6.80;1.00
48328;DHT22;34136;51.022;7.082;2022-11-20T13:28:35;6.80;1.00
48328;DHT22;34136;51.022;7.082;2022-11-20T13:31:30;6.80;1.00
48328;DHT22;34136;51.022;7.082;2022-11-20T13:34:27;6.80;1.00
48328;DHT22;34136;51.022;7.082;2022-11-20T13:37:29;6.80;1.00
48328;DHT22;34136;51.022;7.082;2022-11-20T13:40:21;6.70;1.00
48328;DHT22;34136;51.022;7.082;2022-11-20T13:45:58;6.80;1.00
48328;DHT22;34136;51.022;7.082;2022-11-20T13:48:45;6.80;1.00
48328;DHT22;34136;51.022;7.082;2022-11-20T13:51:50;6.80;1.00
48328;DHT22;34136;51.022;7.082;2022-11-20T13:54:47;6.70;1.00
48328;DHT22;34136;51.022;7.082;2022-11-20T14:00:55;6.70;1.00
48328;DHT22;34136;51.022;7.082;2022-11-20T14:03:43;6.70;1.00
48328;DHT22;34136;51.022;7.082;2022-11-20T14:06:32;6.80;1.00
48328;DHT22;34136;51.022;7.082;2022-11-20T14:09:31;6.80;1.00
48328;DHT22;34136;51.022;7.082;2022-11-20T14:12:20;6.90;1.00
48328;DHT22;34136;51.022;7.082;2022-11-20T14:15:33;6.90;1.00
48328;DHT22;34136;51.022;7.082;2022-11-20T14:18:20;7.00;1.00
48328;DHT22;34136;51.022;7.082;2022-11-20T14:21:09;6.90;1.00
48328;DHT22;34136;51.022;7.082;2022-11-20T14:24:11;6.90;1.00
48328;DHT22;34136;51.022;7.082;2022-11-20T14:26:57;6.90;1.00
48328;DHT22;34136;51.022;7.082;2022-11-20T14:29:46;6.90;1.00
48328;DHT22;34136;51.022;7.082;2022-11-20T14:32:35;6.90;1.00
48328;DHT22;34136;51.022;7.082;2022-11-20T14:35:25;6.90;1.00
48328;DHT22;34136;51.022;7.082;2022-11-20T14:38:14;6.80;1.00
48328;DHT22;34136;51.022;7.082;2022-11-20T14:41:25;6.80;1.00
48328;DHT22;34136;51.022;7.082;2022-11-20T14:44:12;6.80;1.00
48328;DHT22;34136;51.022;7.082;2022-11-20T14:47:00;6.80;1.00
48328;DHT22;34136;51.022;7.082;2022-11-20T14:49:49;6.80;1.00
48328;DHT22;34136;51.022;7.082;2022-11-20T14:52:36;6.90;1.00
48328;DHT22;34136;51.022;7.082;2022-11-20T14:55:33;6.90;1.00
48328;DHT22;34136;51.022;7.082;2022-11-20T14:58:22;6.90;1.00
48328;DHT22;34136;51.022;7.082;2022-11-20T15:01:12;6.90;1.00
48328;DHT22;34136;51.022;7.082;2022-11-20T15:06:56;6.90;1.00
48328;DHT22;34136;51.022;7.082;2022-11-20T15:09:42;6.90;1.00
48328;DHT22;34136;51.022;7.082;2022-11-20T15:12:40;6.80;1.00
48328;DHT22;34136;51.022;7.082;2022-11-20T15:15:55;6.80;1.00
48328;DHT22;34136;51.022;7.082;2022-11-20T15:19:01;6.70;1.00
48328;DHT22;34136;51.022;7.082;2022-11-20T15:21:49;6.80;1.00
48328;DHT22;34136;51.022;7.082;2022-11-20T15:24:35;6.80;1.00
48328;DHT22;34136;51.022;7.082;2022-11-20T15:27:21;6.80;1.10
48328;DHT22;34136;51.022;7.082;2022-11-20T15:30:16;6.90;1.40
48328;DHT22;34136;51.022;7.082;2022-11-20T15:33:02;6.90;1.60
48328;DHT22;34136;51.022;7.082;2022-11-20T15:35:48;7.00;2.30
48328;DHT22;34136;51.022;7.082;2022-11-20T15:38:35;7.00;2.70
48328;DHT22;34136;51.022;7.082;2022-11-20T15:41:22;7.00;3.20
48328;DHT22;34136;51.022;7.082;2022-11-20T15:44:08;7.10;4.90
48328;DHT22;34136;51.022;7.082;2022-11-20T15:46:57;7.10;4.40
48328;DHT22;34136;51.022;7.082;2022-11-20T15:49:43;7.10;5.00
48328;DHT22;34136;51.022;7.082;2022-11-20T15:52:29;7.10;5.70
48328;DHT22;34136;51.022;7.082;2022-11-20T15:55:16;7.00;6.80
48328;DHT22;34136;51.022;7.082;2022-11-20T15:58:02;6.90;8.20
48328;DHT22;34136;51.022;7.082;2022-11-20T16:00:48;6.90;9.10
48328;DHT22;34136;51.022;7.082;2022-11-20T16:03:35;6.80;10.10
48328;DHT22;34136;51.022;7.082;2022-11-20T16:06:21;6.80;10.60
48328;DHT22;34136;51.022;7.082;2022-11-20T16:09:08;6.80;11.40
48328;DHT22;34136;51.022;7.082;2022-11-20T16:11:54;6.80;11.60
48328;DHT22;34136;51.022;7.082;2022-11-20T16:14:40;6.80;11.90
48328;DHT22;34136;51.022;7.082;2022-11-20T16:17:44;6.80;12.10
48328;DHT22;34136;51.022;7.082;2022-11-20T16:20:30;6.80;13.00
48328;DHT22;34136;51.022;7.082;2022-11-20T16:23:17;6.80;13.30
48328;DHT22;34136;51.022;7.082;2022-11-20T16:26:14;6.80;13.70
48328;DHT22;34136;51.022;7.082;2022-11-20T16:29:02;6.70;14.30
48328;DHT22;34136;51.022;7.082;2022-11-20T16:31:49;6.70;14.40
48328;DHT22;34136;51.022;7.082;2022-11-20T16:34:35;6.80;15.00
48328;DHT22;34136;51.022;7.082;2022-11-20T16:37:21;6.80;14.90
48328;DHT22;34136;51.022;7.082;2022-11-20T16:40:08;6.90;14.90
48328;DHT22;34136;51.022;7.082;2022-11-20T16:42:54;6.90;14.90
48328;DHT22;34136;51.022;7.082;2022-11-20T16:45:43;6.90;15.20
48328;DHT22;34136;51.022;7.082;2022-11-20T16:48:29;6.90;15.40
48328;DHT22;34136;51.022;7.082;2022-11-20T16:51:15;6.80;15.60
48328;DHT22;34136;51.022;7.082;2022-11-20T16:54:03;6.80;15.70
48328;DHT22;34136;51.022;7.082;2022-11-20T16:56:50;6.90;16.40
48328;DHT22;34136;51.022;7.082;2022-11-20T16:59:36;6.90;15.80
48328;DHT22;34136;51.022;7.082;2022-11-20T17:02:22;6.90;15.70
48328;DHT22;34136;51.022;7.082;2022-11-20T17:05:09;6.90;15.50
48328;DHT22;34136;51.022;7.082;2022-11-20T17:07:55;6.90;15.70
48328;DHT22;34136;51.022;7.082;2022-11-20T17:10:41;6.80;15.70
48328;DHT22;34136;51.022;7.082;2022-11-20T17:13:29;6.80;16.30
48328;DHT22;34136;51.022;7.082;2022-11-20T17:16:20;6.80;16.20
48328;DHT22;34136;51.022;7.082;2022-11-20T17:19:07;6.80;16.80
48328;DHT22;34136;51.022;7.082;2022-11-20T17:21:54;6.80;16.40
48328;DHT22;34136;51.022;7.082;2022-11-20T17:24:40;6.70;16.70
48328;DHT22;34136;51.022;7.082;2022-11-20T17:27:26;6.70;17.00
48328;DHT22;34136;51.022;7.082;2022-11-20T17:30:12;6.70;17.40
48328;DHT22;34136;51.022;7.082;2022-11-20T17:32:58;6.80;17.40
48328;DHT22;34136;51.022;7.082;2022-11-20T17:35:44;6.70;17.40
48328;DHT22;34136;51.022;7.082;2022-11-20T17:38:30;6.70;17.60
48328;DHT22;34136;51.022;7.082;2022-11-20T17:41:22;6.70;18.00
48328;DHT22;34136;51.022;7.082;2022-11-20T17:44:09;6.60;18.40
48328;DHT22;34136;51.022;7.082;2022-11-20T17:47:14;6.60;18.80
48328;DHT22;34136;51.022;7.082;2022-11-20T17:50:00;6.60;18.80
48328;DHT22;34136;51.022;7.082;2022-11-20T17:52:46;6.70;18.80
48328;DHT22;34136;51.022;7.082;2022-11-20T17:55:32;6.70;18.80
48328;DHT22;34136;51.022;7.082;2022-11-20T17:58:18;6.60;19.00
48328;DHT22;34136;51.022;7.082;2022-11-20T18:01:23;6.70;19.10
48328;DHT22;34136;51.022;7.082;2022-11-20T18:04:10;6.70;18.80
48328;DHT22;34136;51.022;7.082;2022-11-20T18:06:56;6.70;18.90
48328;DHT22;34136;51.022;7.082;2022-11-20T18:09:42;6.70;19.00
48328;DHT22;34136;51.022;7.082;2022-11-20T18:12:28;6.70;19.30
48328;DHT22;34136;51.022;7.082;2022-11-20T18:15:14;6.70;19.40
48328;DHT22;34136;51.022;7.082;2022-11-20T18:18:01;6.80;19.30
48328;DHT22;34136;51.022;7.082;2022-11-20T18:20:52;6.80;19.00
48328;DHT22;34136;51.022;7.082;2022-11-20T18:23:57;6.70;19.30
48328;DHT22;34136;51.022;7.082;2022-11-20T18:26:44;6.70;19.80
48328;DHT22;34136;51.022;7.082;2022-11-20T18:29:30;6.70;20.30
48328;DHT22;34136;51.022;7.082;2022-11-20T18:32:18;6.70;20.00
48328;DHT22;34136;51.022;7.082;2022-11-20T18:35:04;6.70;20.30
48328;DHT22;34136;51.022;7.082;2022-11-20T18:37:51;6.70;20.30
48328;DHT22;34136;51.022;7.082;2022-11-20T18:40:37;6.70;20.70
48328;DHT22;34136;51.022;7.082;2022-11-20T18:43:23;6.80;20.90
48328;DHT22;34136;51.022;7.082;2022-11-20T18:46:09;6.80;20.40
48328;DHT22;34136;51.022;7.082;2022-11-20T18:48:55;6.80;20.80
48328;DHT22;34136;51.022;7.082;2022-11-20T18:51:42;6.90;21.00
48328;DHT22;34136;51.022;7.082;2022-11-20T18:54:29;6.90;21.30
48328;DHT22;34136;51.022;7.082;2022-11-20T18:57:37;6.90;21.80
48328;DHT22;34136;51.022;7.082;2022-11-20T19:00:23;6.90;20.90
48328;DHT22;34136;51.022;7.082;2022-11-20T19:03:09;6.90;20.70
48328;DHT22;34136;51.022;7.082;2022-11-20T19:05:55;6.90;21.00
48328;DHT22;34136;51.022;7.082;2022-11-20T19:08:42;7.00;20.90
48328;DHT22;34136;51.022;7.082;2022-11-20T19:11:28;6.90;21.20
48328;DHT22;34136;51.022;7.082;2022-11-20T19:14:14;7.00;21.60
48328;DHT22;34136;51.022;7.082;2022-11-20T19:17:01;7.00;21.70
48328;DHT22;34136;51.022;7.082;2022-11-20T19:19:48;7.10;21.90
48328;DHT22;34136;51.022;7.082;2022-11-20T19:22:34;7.10;21.70
48328;DHT22;34136;51.022;7.082;2022-11-20T19:25:21;7.10;21.70
48328;DHT22;34136;51.022;7.082;2022-11-20T19:28:07;7.10;21.50
48328;DHT22;34136;51.022;7.082;2022-11-20T19:30:53;7.20;21.60
48328;DHT22;34136;51.022;7.082;2022-11-20T19:33:40;7.20;21.40
48328;DHT22;34136;51.022;7.082;2022-11-20T19:36:32;7.30;21.20
48328;DHT22;34136;51.022;7.082;2022-11-20T19:39:19;7.30;21.40
48328;DHT22;34136;51.022;7.082;2022-11-20T19:42:05;7.30;21.80
48328;DHT22;34136;51.022;7.082;2022-11-20T19:45:10;7.30;21.90
48328;DHT22;34136;51.022;7.082;2022-11-20T19:47:57;7.30;21.70